sensor_id;sensor_type;location;lat;lon;timestamp;P1;durP1;ratioP1;P2;durP2;ratioP2
63492;SDS011;49638;47.526;10.028;2023-10-13T00:01:31;7.82;;;2.33;;
63492;SDS011;49638;47.526;10.028;2023-10-13T00:04:31;11.02;;;2.47;;
63492;SDS011;49638;47.526;10.028;2023-10-13T00:07:35;7.20;;;2.50;;
63492;SDS011;49638;47.526;10.028;2023-10-13T00:10:36;7.75;;;2.30;;
63492;SDS011;49638;47.526;10.028;2023-10-13T00:13:36;9.43;;;2.42;;
63492;SDS011;49638;47.526;10.028;2023-10-13T00:16:44;7.03;;;2.72;;
63492;SDS011;49638;47.526;10.028;2023-10-13T00:20:01;9.82;;;2.53;;
63492;SDS011;49638;47.526;10.028;2023-10-13T00:23:02;10.70;;;2.60;;
63492;SDS011;49638;47.526;10.028;2023-10-13T00:26:03;7.10;;;2.28;;
63492;SDS011;49638;47.526;10.028;2023-10-13T00:29:03;11.00;;;2.63;;
63492;SDS011;49638;47.526;10.028;2023-10-13T00:32:06;8.43;;;2.67;;
63492;SDS011;49638;47.526;10.028;2023-10-13T00:35:12;6.20;;;2.10;;
63492;SDS011;49638;47.526;10.028;2023-10-13T00:38:25;8.32;;;2.45;;
63492;SDS011;49638;47.526;10.028;2023-10-13T00:41:27;7.15;;;2.75;;
63492;SDS011;49638;47.526;10.028;2023-10-13T00:44:46;8.23;;;2.40;;
63492;SDS011;49638;47.526;10.028;2023-10-13T00:47:49;7.80;;;2.53;;
63492;SDS011;49638;47.526;10.028;2023-10-13T00:50:50;9.75;;;2.92;;
63492;SDS011;49638;47.526;10.028;2023-10-13T00:53:51;7.50;;;2.30;;
63492;SDS011;49638;47.526;10.028;2023-10-13T00:56:51;7.60;;;2.25;;
63492;SDS011;49638;47.526;10.028;2023-10-13T01:00:04;8.90;;;2.42;;
63492;SDS011;49638;47.526;10.028;2023-10-13T01:03:18;6.93;;;2.28;;
63492;SDS011;49638;47.526;10.028;2023-10-13T01:06:28;8.25;;;2.40;;
63492;SDS011;49638;47.526;10.028;2023-10-13T01:09:29;5.35;;;2.40;;
63492;SDS011;49638;47.526;10.028;2023-10-13T01:12:32;10.98;;;2.10;;
63492;SDS011;49638;47.526;10.028;2023-10-13T01:15:33;7.72;;;2.45;;
63492;SDS011;49638;47.526;10.028;2023-10-13T01:18:34;8.10;;;2.15;;
63492;SDS011;49638;47.526;10.028;2023-10-13T01:24:48;5.32;;;2.05;;
63492;SDS011;49638;47.526;10.028;2023-10-13T01:27:49;7.75;;;2.50;;
63492;SDS011;49638;47.526;10.028;2023-10-13T01:30:49;7.45;;;2.25;;
63492;SDS011;49638;47.526;10.028;2023-10-13T01:33:53;5.72;;;2.08;;
63492;SDS011;49638;47.526;10.028;2023-10-13T01:36:55;5.00;;;2.38;;
63492;SDS011;49638;47.526;10.028;2023-10-13T01:39:55;6.65;;;2.22;;
63492;SDS011;49638;47.526;10.028;2023-10-13T01:42:55;5.32;;;2.42;;
63492;SDS011;49638;47.526;10.028;2023-10-13T01:45:56;4.28;;;1.67;;
63492;SDS011;49638;47.526;10.028;2023-10-13T01:48:56;6.45;;;2.20;;
63492;SDS011;49638;47.526;10.028;2023-10-13T01:51:56;8.55;;;2.35;;
63492;SDS011;49638;47.526;10.028;2023-10-13T01:55:03;7.00;;;2.33;;
63492;SDS011;49638;47.526;10.028;2023-10-13T01:58:06;7.10;;;2.22;;
63492;SDS011;49638;47.526;10.028;2023-10-13T02:01:14;7.57;;;2.28;;
63492;SDS011;49638;47.526;10.028;2023-10-13T02:04:27;5.22;;;2.25;;
63492;SDS011;49638;47.526;10.028;2023-10-13T02:07:27;8.75;;;2.28;;
63492;SDS011;49638;47.526;10.028;2023-10-13T02:10:29;7.80;;;2.45;;
63492;SDS011;49638;47.526;10.028;2023-10-13T02:13:31;9.25;;;2.42;;
63492;SDS011;49638;47.526;10.028;2023-10-13T02:16:31;9.05;;;2.65;;
63492;SDS011;49638;47.526;10.028;2023-10-13T02:19:32;4.25;;;2.38;;
63492;SDS011;49638;47.526;10.028;2023-10-13T02:22:32;7.93;;;2.78;;
63492;SDS011;49638;47.526;10.028;2023-10-13T02:25:34;11.68;;;2.67;;
63492;SDS011;49638;47.526;10.028;2023-10-13T02:28:35;7.72;;;2.42;;
63492;SDS011;49638;47.526;10.028;2023-10-13T02:31:37;10.82;;;2.60;;
63492;SDS011;49638;47.526;10.028;2023-10-13T02:34:38;9.68;;;2.15;;
63492;SDS011;49638;47.526;10.028;2023-10-13T02:37:43;5.90;;;2.20;;
63492;SDS011;49638;47.526;10.028;2023-10-13T02:40:44;5.55;;;2.05;;
63492;SDS011;49638;47.526;10.028;2023-10-13T02:43:44;7.13;;;2.08;;
63492;SDS011;49638;47.526;10.028;2023-10-13T02:46:44;9.00;;;2.30;;
63492;SDS011;49638;47.526;10.028;2023-10-13T02:49:50;9.38;;;2.50;;
63492;SDS011;49638;47.526;10.028;2023-10-13T02:52:50;9.52;;;2.67;;
63492;SDS011;49638;47.526;10.028;2023-10-13T02:55:53;9.40;;;2.40;;
63492;SDS011;49638;47.526;10.028;2023-10-13T02:58:55;5.80;;;2.27;;
63492;SDS011;49638;47.526;10.028;2023-10-13T03:02:05;9.15;;;2.40;;
63492;SDS011;49638;47.526;10.028;2023-10-13T03:05:23;6.85;;;1.83;;
63492;SDS011;49638;47.526;10.028;2023-10-13T03:08:24;11.20;;;2.67;;
63492;SDS011;49638;47.526;10.028;2023-10-13T03:11:27;5.23;;;2.07;;
63492;SDS011;49638;47.526;10.028;2023-10-13T03:14:33;7.47;;;2.22;;
63492;SDS011;49638;47.526;10.028;2023-10-13T03:17:34;8.63;;;2.67;;
63492;SDS011;49638;47.526;10.028;2023-10-13T03:20:37;8.10;;;2.28;;
63492;SDS011;49638;47.526;10.028;2023-10-13T03:23:41;5.95;;;2.10;;
63492;SDS011;49638;47.526;10.028;2023-10-13T03:29:52;9.32;;;2.20;;
63492;SDS011;49638;47.526;10.028;2023-10-13T03:32:56;8.40;;;2.10;;
63492;SDS011;49638;47.526;10.028;2023-10-13T03:35:56;7.55;;;2.20;;
63492;SDS011;49638;47.526;10.028;2023-10-13T03:39:05;11.20;;;2.53;;
63492;SDS011;49638;47.526;10.028;2023-10-13T03:42:07;5.57;;;2.22;;
63492;SDS011;49638;47.526;10.028;2023-10-13T03:45:11;5.47;;;1.95;;
63492;SDS011;49638;47.526;10.028;2023-10-13T03:48:12;10.25;;;2.40;;
63492;SDS011;49638;47.526;10.028;2023-10-13T03:51:28;7.72;;;2.15;;
63492;SDS011;49638;47.526;10.028;2023-10-13T03:54:31;12.10;;;2.40;;
63492;SDS011;49638;47.526;10.028;2023-10-13T03:57:34;7.88;;;2.00;;
63492;SDS011;49638;47.526;10.028;2023-10-13T04:00:37;8.63;;;2.17;;
63492;SDS011;49638;47.526;10.028;2023-10-13T04:03:38;9.35;;;2.15;;
63492;SDS011;49638;47.526;10.028;2023-10-13T04:06:38;9.65;;;2.22;;
63492;SDS011;49638;47.526;10.028;2023-10-13T04:09:51;8.68;;;2.22;;
63492;SDS011;49638;47.526;10.028;2023-10-13T04:13:11;8.63;;;2.70;;
63492;SDS011;49638;47.526;10.028;2023-10-13T04:16:27;6.55;;;2.05;;
63492;SDS011;49638;47.526;10.028;2023-10-13T04:19:27;7.60;;;2.13;;
63492;SDS011;49638;47.526;10.028;2023-10-13T04:22:29;6.00;;;2.47;;
63492;SDS011;49638;47.526;10.028;2023-10-13T04:25:47;9.30;;;2.58;;
63492;SDS011;49638;47.526;10.028;2023-10-13T04:28:50;5.07;;;2.10;;
63492;SDS011;49638;47.526;10.028;2023-10-13T04:31:55;8.70;;;2.20;;
63492;SDS011;49638;47.526;10.028;2023-10-13T04:35:01;11.43;;;2.60;;
63492;SDS011;49638;47.526;10.028;2023-10-13T04:38:10;5.70;;;2.28;;
63492;SDS011;49638;47.526;10.028;2023-10-13T04:41:19;9.10;;;2.17;;
63492;SDS011;49638;47.526;10.028;2023-10-13T04:44:23;8.70;;;2.70;;
63492;SDS011;49638;47.526;10.028;2023-10-13T04:47:30;9.60;;;2.38;;
63492;SDS011;49638;47.526;10.028;2023-10-13T04:50:41;6.35;;;2.08;;
63492;SDS011;49638;47.526;10.028;2023-10-13T04:53:45;7.88;;;2.70;;
63492;SDS011;49638;47.526;10.028;2023-10-13T04:57:04;5.07;;;2.55;;
63492;SDS011;49638;47.526;10.028;2023-10-13T05:00:23;6.85;;;2.20;;
63492;SDS011;49638;47.526;10.028;2023-10-13T05:03:46;8.02;;;2.40;;
63492;SDS011;49638;47.526;10.028;2023-10-13T05:07:05;9.93;;;2.33;;
63492;SDS011;49638;47.526;10.028;2023-10-13T05:10:24;8.05;;;2.40;;
63492;SDS011;49638;47.526;10.028;2023-10-13T05:13:43;6.03;;;2.40;;
63492;SDS011;49638;47.526;10.028;2023-10-13T05:17:02;6.85;;;2.15;;
63492;SDS011;49638;47.526;10.028;2023-10-13T05:20:40;7.03;;;2.80;;
63492;SDS011;49638;47.526;10.028;2023-10-13T05:24:00;9.13;;;2.67;;
63492;SDS011;49638;47.526;10.028;2023-10-13T05:27:18;10.10;;;2.28;;
63492;SDS011;49638;47.526;10.028;2023-10-13T05:30:37;6.47;;;2.30;;
63492;SDS011;49638;47.526;10.028;2023-10-13T05:33:57;10.52;;;2.10;;
63492;SDS011;49638;47.526;10.028;2023-10-13T05:37:24;7.63;;;2.28;;
63492;SDS011;49638;47.526;10.028;2023-10-13T05:40:52;7.25;;;2.10;;
63492;SDS011;49638;47.526;10.028;2023-10-13T05:44:11;6.45;;;2.05;;
63492;SDS011;49638;47.526;10.028;2023-10-13T05:47:30;6.40;;;2.28;;
63492;SDS011;49638;47.526;10.028;2023-10-13T05:50:42;7.80;;;2.60;;
63492;SDS011;49638;47.526;10.028;2023-10-13T05:54:02;8.25;;;2.45;;
63492;SDS011;49638;47.526;10.028;2023-10-13T05:57:15;11.70;;;2.30;;
63492;SDS011;49638;47.526;10.028;2023-10-13T06:00:38;8.60;;;2.33;;
63492;SDS011;49638;47.526;10.028;2023-10-13T06:03:57;5.80;;;2.08;;
63492;SDS011;49638;47.526;10.028;2023-10-13T06:07:16;7.38;;;2.17;;
63492;SDS011;49638;47.526;10.028;2023-10-13T06:10:35;5.50;;;2.40;;
63492;SDS011;49638;47.526;10.028;2023-10-13T06:13:55;7.80;;;2.20;;
63492;SDS011;49638;47.526;10.028;2023-10-13T06:17:14;7.43;;;2.13;;
63492;SDS011;49638;47.526;10.028;2023-10-13T06:20:37;8.13;;;1.98;;
63492;SDS011;49638;47.526;10.028;2023-10-13T06:23:57;7.55;;;2.30;;
63492;SDS011;49638;47.526;10.028;2023-10-13T06:27:16;7.45;;;2.85;;
63492;SDS011;49638;47.526;10.028;2023-10-13T06:30:35;7.18;;;2.53;;
63492;SDS011;49638;47.526;10.028;2023-10-13T06:33:35;7.18;;;2.28;;
63492;SDS011;49638;47.526;10.028;2023-10-13T06:36:35;5.38;;;2.35;;
63492;SDS011;49638;47.526;10.028;2023-10-13T06:39:39;8.20;;;2.35;;
63492;SDS011;49638;47.526;10.028;2023-10-13T06:42:39;5.22;;;2.10;;
63492;SDS011;49638;47.526;10.028;2023-10-13T06:45:45;11.55;;;2.58;;
63492;SDS011;49638;47.526;10.028;2023-10-13T06:48:57;27.27;;;2.92;;
63492;SDS011;49638;47.526;10.028;2023-10-13T06:51:59;14.70;;;2.63;;
63492;SDS011;49638;47.526;10.028;2023-10-13T06:55:00;6.35;;;2.45;;
63492;SDS011;49638;47.526;10.028;2023-10-13T06:58:04;7.00;;;2.22;;
63492;SDS011;49638;47.526;10.028;2023-10-13T07:01:06;5.78;;;2.05;;
63492;SDS011;49638;47.526;10.028;2023-10-13T07:04:07;6.40;;;2.20;;
63492;SDS011;49638;47.526;10.028;2023-10-13T07:07:16;9.00;;;2.30;;
63492;SDS011;49638;47.526;10.028;2023-10-13T07:10:16;15.88;;;2.92;;
63492;SDS011;49638;47.526;10.028;2023-10-13T07:13:16;5.88;;;2.00;;
63492;SDS011;49638;47.526;10.028;2023-10-13T07:16:17;10.93;;;2.25;;
63492;SDS011;49638;47.526;10.028;2023-10-13T07:19:18;10.40;;;2.38;;
63492;SDS011;49638;47.526;10.028;2023-10-13T07:22:19;10.82;;;2.38;;
63492;SDS011;49638;47.526;10.028;2023-10-13T07:25:20;11.68;;;2.63;;
63492;SDS011;49638;47.526;10.028;2023-10-13T07:31:24;15.15;;;2.08;;
63492;SDS011;49638;47.526;10.028;2023-10-13T07:34:27;13.40;;;2.60;;
63492;SDS011;49638;47.526;10.028;2023-10-13T07:37:31;7.82;;;2.33;;
63492;SDS011;49638;47.526;10.028;2023-10-13T07:40:32;14.82;;;2.60;;
63492;SDS011;49638;47.526;10.028;2023-10-13T07:43:35;7.00;;;1.83;;
63492;SDS011;49638;47.526;10.028;2023-10-13T07:46:39;8.00;;;2.08;;
63492;SDS011;49638;47.526;10.028;2023-10-13T07:49:40;8.07;;;2.45;;
63492;SDS011;49638;47.526;10.028;2023-10-13T07:52:40;12.88;;;2.13;;
63492;SDS011;49638;47.526;10.028;2023-10-13T07:55:58;6.28;;;2.30;;
63492;SDS011;49638;47.526;10.028;2023-10-13T07:59:03;8.35;;;2.70;;
63492;SDS011;49638;47.526;10.028;2023-10-13T08:02:06;11.13;;;2.40;;
63492;SDS011;49638;47.526;10.028;2023-10-13T08:05:13;9.68;;;2.40;;
63492;SDS011;49638;47.526;10.028;2023-10-13T08:08:24;8.40;;;2.03;;
63492;SDS011;49638;47.526;10.028;2023-10-13T08:11:39;7.97;;;2.45;;
63492;SDS011;49638;47.526;10.028;2023-10-13T08:14:40;7.75;;;2.47;;
63492;SDS011;49638;47.526;10.028;2023-10-13T08:17:41;8.90;;;3.50;;
63492;SDS011;49638;47.526;10.028;2023-10-13T08:20:44;8.95;;;2.13;;
63492;SDS011;49638;47.526;10.028;2023-10-13T08:23:44;7.47;;;2.50;;
63492;SDS011;49638;47.526;10.028;2023-10-13T08:26:53;10.35;;;2.20;;
63492;SDS011;49638;47.526;10.028;2023-10-13T08:30:12;9.30;;;2.25;;
63492;SDS011;49638;47.526;10.028;2023-10-13T08:33:29;10.55;;;2.20;;
63492;SDS011;49638;47.526;10.028;2023-10-13T08:36:32;4.13;;;1.70;;
63492;SDS011;49638;47.526;10.028;2023-10-13T08:39:33;10.75;;;2.47;;
63492;SDS011;49638;47.526;10.028;2023-10-13T08:42:52;11.02;;;2.35;;
63492;SDS011;49638;47.526;10.028;2023-10-13T08:46:09;11.35;;;2.45;;
63492;SDS011;49638;47.526;10.028;2023-10-13T08:49:09;7.40;;;2.60;;
63492;SDS011;49638;47.526;10.028;2023-10-13T08:52:14;4.90;;;2.03;;
63492;SDS011;49638;47.526;10.028;2023-10-13T08:55:35;8.70;;;2.60;;
63492;SDS011;49638;47.526;10.028;2023-10-13T08:58:48;7.37;;;2.33;;
63492;SDS011;49638;47.526;10.028;2023-10-13T09:01:52;9.27;;;2.33;;
63492;SDS011;49638;47.526;10.028;2023-10-13T09:05:15;7.35;;;2.10;;
63492;SDS011;49638;47.526;10.028;2023-10-13T09:08:35;7.72;;;2.28;;
63492;SDS011;49638;47.526;10.028;2023-10-13T09:11:35;6.95;;;2.22;;
63492;SDS011;49638;47.526;10.028;2023-10-13T09:14:52;4.35;;;2.08;;
63492;SDS011;49638;47.526;10.028;2023-10-13T09:18:04;6.80;;;2.35;;
63492;SDS011;49638;47.526;10.028;2023-10-13T09:21:15;7.38;;;2.05;;
63492;SDS011;49638;47.526;10.028;2023-10-13T09:24:35;6.40;;;1.83;;
63492;SDS011;49638;47.526;10.028;2023-10-13T09:27:36;7.50;;;2.17;;
63492;SDS011;49638;47.526;10.028;2023-10-13T09:30:47;6.65;;;2.45;;
63492;SDS011;49638;47.526;10.028;2023-10-13T09:33:49;10.75;;;2.28;;
63492;SDS011;49638;47.526;10.028;2023-10-13T09:36:57;7.45;;;2.20;;
63492;SDS011;49638;47.526;10.028;2023-10-13T09:40:03;8.73;;;2.28;;
63492;SDS011;49638;47.526;10.028;2023-10-13T09:43:24;5.85;;;2.50;;
63492;SDS011;49638;47.526;10.028;2023-10-13T09:46:27;8.70;;;2.08;;
63492;SDS011;49638;47.526;10.028;2023-10-13T09:49:28;6.85;;;2.50;;
63492;SDS011;49638;47.526;10.028;2023-10-13T09:52:44;9.43;;;2.30;;
63492;SDS011;49638;47.526;10.028;2023-10-13T09:55:48;6.50;;;2.20;;
63492;SDS011;49638;47.526;10.028;2023-10-13T10:04:58;37.00;;;2.88;;
63492;SDS011;49638;47.526;10.028;2023-10-13T10:08:24;5.63;;;2.00;;
63492;SDS011;49638;47.526;10.028;2023-10-13T10:11:52;10.10;;;2.13;;
63492;SDS011;49638;47.526;10.028;2023-10-13T10:15:26;9.98;;;2.30;;
63492;SDS011;49638;47.526;10.028;2023-10-13T10:18:30;7.60;;;2.00;;
63492;SDS011;49638;47.526;10.028;2023-10-13T10:21:35;10.90;;;2.30;;
63492;SDS011;49638;47.526;10.028;2023-10-13T10:24:35;6.75;;;2.25;;
63492;SDS011;49638;47.526;10.028;2023-10-13T10:27:36;5.60;;;1.95;;
63492;SDS011;49638;47.526;10.028;2023-10-13T10:30:37;8.90;;;2.03;;
63492;SDS011;49638;47.526;10.028;2023-10-13T10:33:39;4.47;;;1.92;;
63492;SDS011;49638;47.526;10.028;2023-10-13T10:36:40;5.70;;;2.28;;
63492;SDS011;49638;47.526;10.028;2023-10-13T10:39:46;6.63;;;2.00;;
63492;SDS011;49638;47.526;10.028;2023-10-13T10:42:50;6.45;;;1.92;;
63492;SDS011;49638;47.526;10.028;2023-10-13T10:45:52;5.90;;;2.33;;
63492;SDS011;49638;47.526;10.028;2023-10-13T10:49:03;6.28;;;2.10;;
63492;SDS011;49638;47.526;10.028;2023-10-13T10:52:05;5.30;;;1.80;;
63492;SDS011;49638;47.526;10.028;2023-10-13T10:55:19;8.68;;;2.15;;
63492;SDS011;49638;47.526;10.028;2023-10-13T10:58:20;4.82;;;1.90;;
63492;SDS011;49638;47.526;10.028;2023-10-13T11:01:28;4.85;;;1.70;;
63492;SDS011;49638;47.526;10.028;2023-10-13T11:04:38;6.30;;;2.08;;
63492;SDS011;49638;47.526;10.028;2023-10-13T11:07:50;6.60;;;1.98;;
63492;SDS011;49638;47.526;10.028;2023-10-13T11:10:51;7.00;;;2.30;;
63492;SDS011;49638;47.526;10.028;2023-10-13T11:13:51;6.40;;;2.20;;
63492;SDS011;49638;47.526;10.028;2023-10-13T11:16:54;5.70;;;1.67;;
63492;SDS011;49638;47.526;10.028;2023-10-13T11:20:15;5.40;;;1.73;;
63492;SDS011;49638;47.526;10.028;2023-10-13T11:23:17;4.28;;;1.70;;
63492;SDS011;49638;47.526;10.028;2023-10-13T11:26:17;8.07;;;2.15;;
63492;SDS011;49638;47.526;10.028;2023-10-13T11:29:18;4.72;;;1.77;;
63492;SDS011;49638;47.526;10.028;2023-10-13T11:32:19;6.18;;;2.22;;
63492;SDS011;49638;47.526;10.028;2023-10-13T11:35:20;4.32;;;1.70;;
63492;SDS011;49638;47.526;10.028;2023-10-13T11:41:28;6.20;;;1.92;;
63492;SDS011;49638;47.526;10.028;2023-10-13T11:44:38;5.63;;;1.80;;
63492;SDS011;49638;47.526;10.028;2023-10-13T11:47:43;10.93;;;2.10;;
63492;SDS011;49638;47.526;10.028;2023-10-13T11:51:02;6.32;;;2.83;;
63492;SDS011;49638;47.526;10.028;2023-10-13T11:54:09;8.07;;;2.35;;
63492;SDS011;49638;47.526;10.028;2023-10-13T11:57:09;3.92;;;2.30;;
63492;SDS011;49638;47.526;10.028;2023-10-13T12:00:09;6.60;;;2.35;;
63492;SDS011;49638;47.526;10.028;2023-10-13T12:03:25;5.30;;;2.10;;
63492;SDS011;49638;47.526;10.028;2023-10-13T12:06:43;4.50;;;2.28;;
63492;SDS011;49638;47.526;10.028;2023-10-13T12:10:03;8.23;;;2.63;;
63492;SDS011;49638;47.526;10.028;2023-10-13T12:13:05;8.70;;;2.20;;
63492;SDS011;49638;47.526;10.028;2023-10-13T12:16:07;6.43;;;2.30;;
63492;SDS011;49638;47.526;10.028;2023-10-13T12:19:09;4.55;;;2.28;;
63492;SDS011;49638;47.526;10.028;2023-10-13T12:22:11;7.90;;;2.60;;
63492;SDS011;49638;47.526;10.028;2023-10-13T12:25:16;9.20;;;2.40;;
63492;SDS011;49638;47.526;10.028;2023-10-13T12:28:44;7.75;;;2.75;;
63492;SDS011;49638;47.526;10.028;2023-10-13T12:32:05;8.48;;;2.40;;
63492;SDS011;49638;47.526;10.028;2023-10-13T12:35:08;4.40;;;2.30;;
63492;SDS011;49638;47.526;10.028;2023-10-13T12:38:08;5.03;;;2.58;;
63492;SDS011;49638;47.526;10.028;2023-10-13T12:41:28;8.02;;;2.55;;
63492;SDS011;49638;47.526;10.028;2023-10-13T12:44:47;9.07;;;2.38;;
63492;SDS011;49638;47.526;10.028;2023-10-13T12:48:06;9.77;;;2.53;;
63492;SDS011;49638;47.526;10.028;2023-10-13T12:51:25;4.20;;;2.35;;
63492;SDS011;49638;47.526;10.028;2023-10-13T12:54:28;3.80;;;2.27;;
63492;SDS011;49638;47.526;10.028;2023-10-13T12:57:35;8.05;;;2.38;;
63492;SDS011;49638;47.526;10.028;2023-10-13T13:00:43;7.88;;;2.50;;
63492;SDS011;49638;47.526;10.028;2023-10-13T13:03:48;5.15;;;2.20;;
63492;SDS011;49638;47.526;10.028;2023-10-13T13:06:50;8.57;;;2.42;;
63492;SDS011;49638;47.526;10.028;2023-10-13T13:09:50;4.35;;;2.40;;
63492;SDS011;49638;47.526;10.028;2023-10-13T13:12:50;6.17;;;2.53;;
63492;SDS011;49638;47.526;10.028;2023-10-13T13:15:50;6.82;;;2.10;;
63492;SDS011;49638;47.526;10.028;2023-10-13T13:18:52;6.78;;;2.40;;
63492;SDS011;49638;47.526;10.028;2023-10-13T13:21:55;7.72;;;2.42;;
63492;SDS011;49638;47.526;10.028;2023-10-13T13:24:55;4.73;;;2.73;;
63492;SDS011;49638;47.526;10.028;2023-10-13T13:27:56;4.60;;;2.70;;
63492;SDS011;49638;47.526;10.028;2023-10-13T13:30:57;4.40;;;2.30;;
63492;SDS011;49638;47.526;10.028;2023-10-13T13:33:57;8.73;;;2.78;;
63492;SDS011;49638;47.526;10.028;2023-10-13T13:36:58;6.18;;;3.15;;
63492;SDS011;49638;47.526;10.028;2023-10-13T13:40:03;5.57;;;2.45;;
63492;SDS011;49638;47.526;10.028;2023-10-13T13:43:18;6.90;;;2.60;;
63492;SDS011;49638;47.526;10.028;2023-10-13T13:46:31;4.90;;;2.80;;
63492;SDS011;49638;47.526;10.028;2023-10-13T13:49:41;6.15;;;2.40;;
63492;SDS011;49638;47.526;10.028;2023-10-13T13:52:51;6.63;;;2.88;;
63492;SDS011;49638;47.526;10.028;2023-10-13T13:55:52;4.07;;;2.17;;
63492;SDS011;49638;47.526;10.028;2023-10-13T13:58:53;8.63;;;2.78;;
63492;SDS011;49638;47.526;10.028;2023-10-13T14:01:55;12.73;;;2.75;;
63492;SDS011;49638;47.526;10.028;2023-10-13T14:04:59;6.40;;;2.75;;
63492;SDS011;49638;47.526;10.028;2023-10-13T14:08:02;7.68;;;3.13;;
63492;SDS011;49638;47.526;10.028;2023-10-13T14:11:04;7.32;;;3.00;;
63492;SDS011;49638;47.526;10.028;2023-10-13T14:14:21;8.00;;;2.53;;
63492;SDS011;49638;47.526;10.028;2023-10-13T14:17:25;5.97;;;3.10;;
63492;SDS011;49638;47.526;10.028;2023-10-13T14:23:29;5.50;;;2.80;;
63492;SDS011;49638;47.526;10.028;2023-10-13T14:26:30;5.47;;;2.60;;
63492;SDS011;49638;47.526;10.028;2023-10-13T14:29:31;5.63;;;2.97;;
63492;SDS011;49638;47.526;10.028;2023-10-13T14:32:31;7.45;;;3.25;;
63492;SDS011;49638;47.526;10.028;2023-10-13T14:35:35;6.80;;;3.00;;
63492;SDS011;49638;47.526;10.028;2023-10-13T14:41:36;5.13;;;2.85;;
63492;SDS011;49638;47.526;10.028;2023-10-13T14:44:37;10.15;;;3.20;;
63492;SDS011;49638;47.526;10.028;2023-10-13T14:47:38;8.00;;;3.00;;
63492;SDS011;49638;47.526;10.028;2023-10-13T14:50:41;5.57;;;2.75;;
63492;SDS011;49638;47.526;10.028;2023-10-13T14:53:43;6.75;;;3.00;;
63492;SDS011;49638;47.526;10.028;2023-10-13T14:56:44;8.40;;;3.33;;
63492;SDS011;49638;47.526;10.028;2023-10-13T14:59:44;6.90;;;3.03;;
63492;SDS011;49638;47.526;10.028;2023-10-13T15:02:44;10.18;;;3.80;;
63492;SDS011;49638;47.526;10.028;2023-10-13T15:05:45;5.97;;;3.03;;
63492;SDS011;49638;47.526;10.028;2023-10-13T15:08:45;8.55;;;3.15;;
63492;SDS011;49638;47.526;10.028;2023-10-13T15:11:47;12.93;;;3.00;;
63492;SDS011;49638;47.526;10.028;2023-10-13T15:14:47;10.43;;;3.45;;
63492;SDS011;49638;47.526;10.028;2023-10-13T15:17:48;7.70;;;3.40;;
63492;SDS011;49638;47.526;10.028;2023-10-13T15:20:48;6.32;;;3.10;;
63492;SDS011;49638;47.526;10.028;2023-10-13T15:23:48;10.07;;;3.10;;
63492;SDS011;49638;47.526;10.028;2023-10-13T15:26:51;15.40;;;3.40;;
63492;SDS011;49638;47.526;10.028;2023-10-13T15:29:57;7.68;;;3.42;;
63492;SDS011;49638;47.526;10.028;2023-10-13T15:32:59;6.90;;;3.28;;
63492;SDS011;49638;47.526;10.028;2023-10-13T15:36:00;5.20;;;2.95;;
63492;SDS011;49638;47.526;10.028;2023-10-13T15:39:00;6.13;;;3.15;;
63492;SDS011;49638;47.526;10.028;2023-10-13T15:42:01;6.50;;;3.28;;
63492;SDS011;49638;47.526;10.028;2023-10-13T15:45:02;10.63;;;3.22;;
63492;SDS011;49638;47.526;10.028;2023-10-13T15:48:16;6.28;;;2.78;;
63492;SDS011;49638;47.526;10.028;2023-10-13T15:51:16;5.45;;;2.97;;
63492;SDS011;49638;47.526;10.028;2023-10-13T15:54:17;5.75;;;3.20;;
63492;SDS011;49638;47.526;10.028;2023-10-13T15:57:17;8.20;;;2.95;;
63492;SDS011;49638;47.526;10.028;2023-10-13T16:00:18;9.05;;;3.00;;
63492;SDS011;49638;47.526;10.028;2023-10-13T16:03:25;10.68;;;3.42;;
63492;SDS011;49638;47.526;10.028;2023-10-13T16:06:27;7.47;;;3.42;;
63492;SDS011;49638;47.526;10.028;2023-10-13T16:09:29;61.45;;;4.30;;
63492;SDS011;49638;47.526;10.028;2023-10-13T16:12:33;7.15;;;3.08;;
63492;SDS011;49638;47.526;10.028;2023-10-13T16:15:35;7.47;;;3.65;;
63492;SDS011;49638;47.526;10.028;2023-10-13T16:18:40;7.68;;;2.67;;
63492;SDS011;49638;47.526;10.028;2023-10-13T16:21:40;9.50;;;3.10;;
63492;SDS011;49638;47.526;10.028;2023-10-13T16:24:41;5.28;;;2.80;;
63492;SDS011;49638;47.526;10.028;2023-10-13T16:27:42;9.38;;;2.78;;
63492;SDS011;49638;47.526;10.028;2023-10-13T16:30:43;6.47;;;3.55;;
63492;SDS011;49638;47.526;10.028;2023-10-13T16:33:44;6.32;;;2.75;;
63492;SDS011;49638;47.526;10.028;2023-10-13T16:36:45;9.30;;;3.13;;
63492;SDS011;49638;47.526;10.028;2023-10-13T16:39:46;7.82;;;2.83;;
63492;SDS011;49638;47.526;10.028;2023-10-13T16:42:46;9.60;;;3.03;;
63492;SDS011;49638;47.526;10.028;2023-10-13T16:45:47;7.35;;;3.13;;
63492;SDS011;49638;47.526;10.028;2023-10-13T16:48:48;21.10;;;3.35;;
63492;SDS011;49638;47.526;10.028;2023-10-13T16:51:48;7.50;;;2.95;;
63492;SDS011;49638;47.526;10.028;2023-10-13T16:54:48;6.55;;;2.92;;
63492;SDS011;49638;47.526;10.028;2023-10-13T16:57:49;4.72;;;2.70;;
63492;SDS011;49638;47.526;10.028;2023-10-13T17:00:50;6.22;;;2.47;;
63492;SDS011;49638;47.526;10.028;2023-10-13T17:03:51;4.55;;;2.67;;
63492;SDS011;49638;47.526;10.028;2023-10-13T17:06:52;3.75;;;2.63;;
63492;SDS011;49638;47.526;10.028;2023-10-13T17:09:52;5.10;;;2.83;;
63492;SDS011;49638;47.526;10.028;2023-10-13T17:12:56;6.70;;;3.03;;
63492;SDS011;49638;47.526;10.028;2023-10-13T17:15:57;4.55;;;2.55;;
63492;SDS011;49638;47.526;10.028;2023-10-13T17:18:59;9.05;;;2.97;;
63492;SDS011;49638;47.526;10.028;2023-10-13T17:22:01;4.95;;;2.60;;
63492;SDS011;49638;47.526;10.028;2023-10-13T17:25:04;6.82;;;2.42;;
63492;SDS011;49638;47.526;10.028;2023-10-13T17:28:05;5.35;;;2.72;;
63492;SDS011;49638;47.526;10.028;2023-10-13T17:31:15;8.63;;;2.75;;
63492;SDS011;49638;47.526;10.028;2023-10-13T17:34:15;6.30;;;2.65;;
63492;SDS011;49638;47.526;10.028;2023-10-13T17:37:17;5.18;;;2.70;;
63492;SDS011;49638;47.526;10.028;2023-10-13T17:40:17;7.63;;;2.85;;
63492;SDS011;49638;47.526;10.028;2023-10-13T17:43:17;8.75;;;2.50;;
63492;SDS011;49638;47.526;10.028;2023-10-13T17:46:18;5.25;;;2.63;;
63492;SDS011;49638;47.526;10.028;2023-10-13T17:49:20;8.80;;;2.75;;
63492;SDS011;49638;47.526;10.028;2023-10-13T17:52:21;4.50;;;2.60;;
63492;SDS011;49638;47.526;10.028;2023-10-13T17:55:21;6.53;;;2.78;;
63492;SDS011;49638;47.526;10.028;2023-10-13T17:58:22;7.35;;;2.90;;
63492;SDS011;49638;47.526;10.028;2023-10-13T18:01:22;5.97;;;2.38;;
63492;SDS011;49638;47.526;10.028;2023-10-13T18:04:22;5.50;;;3.17;;
63492;SDS011;49638;47.526;10.028;2023-10-13T18:07:23;5.03;;;2.30;;
63492;SDS011;49638;47.526;10.028;2023-10-13T18:10:25;6.47;;;2.72;;
63492;SDS011;49638;47.526;10.028;2023-10-13T18:13:25;5.22;;;2.53;;
63492;SDS011;49638;47.526;10.028;2023-10-13T18:16:26;8.00;;;2.55;;
63492;SDS011;49638;47.526;10.028;2023-10-13T18:19:26;4.40;;;2.63;;
63492;SDS011;49638;47.526;10.028;2023-10-13T18:22:30;6.15;;;2.83;;
63492;SDS011;49638;47.526;10.028;2023-10-13T18:25:35;5.22;;;2.55;;
63492;SDS011;49638;47.526;10.028;2023-10-13T18:28:35;3.72;;;2.53;;
63492;SDS011;49638;47.526;10.028;2023-10-13T18:31:36;10.77;;;2.95;;
63492;SDS011;49638;47.526;10.028;2023-10-13T18:34:36;7.40;;;2.50;;
63492;SDS011;49638;47.526;10.028;2023-10-13T18:37:38;7.05;;;2.80;;
63492;SDS011;49638;47.526;10.028;2023-10-13T18:40:38;4.65;;;2.58;;
63492;SDS011;49638;47.526;10.028;2023-10-13T18:43:39;5.38;;;2.78;;
63492;SDS011;49638;47.526;10.028;2023-10-13T18:49:43;6.88;;;3.28;;